createdAt,value
2023-04-03T00:02:36.129Z,5.90
2023-04-03T00:05:06.338Z,6.00
2023-04-03T00:07:45.338Z,5.55
2023-04-03T00:10:24.481Z,5.57
2023-04-03T00:12:58.953Z,5.10
2023-04-03T00:15:28.652Z,6.85
2023-04-03T00:17:58.428Z,5.10
2023-04-03T00:23:12.696Z,5.05
2023-04-03T00:25:45.921Z,6.00
2023-04-03T00:28:29.088Z,4.53
2023-04-03T00:31:09.009Z,6.40
2023-04-03T00:33:38.276Z,5.45
2023-04-03T00:36:14.822Z,3.50
2023-04-03T00:38:48.316Z,5.43
2023-04-03T00:41:25.309Z,6.13
2023-04-03T00:43:57.389Z,5.18
2023-04-03T00:46:41.549Z,5.38
2023-04-03T00:49:11.194Z,5.38
2023-04-03T00:51:46.261Z,4.90
2023-04-03T00:56:46.421Z,4.57
2023-04-03T00:59:25.861Z,4.60
2023-04-03T01:02:06.549Z,5.68
2023-04-03T01:05:02.439Z,5.38
2023-04-03T01:07:46.330Z,5.20
2023-04-03T01:10:17.977Z,5.43
2023-04-03T01:12:58.385Z,5.85
2023-04-03T01:15:35.810Z,5.50
2023-04-03T01:18:45.568Z,5.47
2023-04-03T01:21:48.248Z,6.93
2023-04-03T01:24:26.677Z,5.43
2023-04-03T01:26:59.647Z,5.97
2023-04-03T01:29:35.373Z,5.15
2023-04-03T01:32:11.635Z,5.80
2023-04-03T01:34:46.081Z,5.07
2023-04-03T01:37:44.288Z,5.25
2023-04-03T01:40:20.524Z,5.07
2023-04-03T01:43:05.090Z,5.00
2023-04-03T01:45:42.299Z,7.60
2023-04-03T01:48:30.994Z,5.20
2023-04-03T01:51:11.710Z,4.90
2023-04-03T01:53:42.685Z,4.95
2023-04-03T01:56:24.397Z,4.38
2023-04-03T01:59:18.318Z,5.30
2023-04-03T02:01:56.216Z,4.20
2023-04-03T02:04:34.540Z,4.78
2023-04-03T02:07:07.144Z,4.82
2023-04-03T02:09:41.181Z,5.25
2023-04-03T02:12:12.127Z,5.03
2023-04-03T02:14:52.789Z,5.72
2023-04-03T02:17:26.341Z,5.80
2023-04-03T02:20:04.935Z,5.63
2023-04-03T02:22:44.109Z,4.60
2023-04-03T02:25:21.257Z,5.90
2023-04-03T02:28:09.683Z,5.55
2023-04-03T02:30:40.771Z,6.43
2023-04-03T02:33:20.761Z,5.68
2023-04-03T02:36:05.613Z,5.38
2023-04-03T02:38:55.289Z,6.38
2023-04-03T02:41:34.320Z,5.00
2023-04-03T02:44:14.421Z,6.28
2023-04-03T02:47:07.988Z,6.65
2023-04-03T02:49:41.375Z,5.05
2023-04-03T02:52:32.715Z,6.68
2023-04-03T02:55:18.824Z,5.72
2023-04-03T02:57:51.729Z,6.10
2023-04-03T03:00:31.177Z,6.68
2023-04-03T03:04:05.148Z,7.13
2023-04-03T03:05:54.014Z,6.13
2023-04-03T03:08:28.753Z,8.02
2023-04-03T03:10:58.669Z,6.28
2023-04-03T03:13:32.645Z,5.32
2023-04-03T03:16:19.435Z,8.77
2023-04-03T03:18:59.110Z,7.30
2023-04-03T03:21:36.533Z,5.88
2023-04-03T03:24:14.292Z,6.20
2023-04-03T03:26:49.902Z,8.68
2023-04-03T03:29:27.175Z,8.27
2023-04-03T03:32:03.978Z,9.38
2023-04-03T03:34:50.196Z,8.13
2023-04-03T03:37:38.783Z,7.30
2023-04-03T03:40:12.624Z,8.98
2023-04-03T03:42:39.345Z,6.80
2023-04-03T03:45:11.428Z,8.50
2023-04-03T03:47:55.107Z,7.78
2023-04-03T03:50:33.949Z,7.32
2023-04-03T03:53:24.521Z,7.93
2023-04-03T03:56:09.770Z,10.90
2023-04-03T03:58:52.331Z,11.18
2023-04-03T04:01:21.497Z,6.80
2023-04-03T04:04:03.227Z,7.82
2023-04-03T04:06:39.555Z,8.00
2023-04-03T04:09:12.887Z,9.50
2023-04-03T04:11:46.823Z,8.60
2023-04-03T04:14:25.203Z,8.57
2023-04-03T04:17:07.030Z,13.02
2023-04-03T04:19:37.242Z,9.25
2023-04-03T04:22:06.838Z,8.40
2023-04-03T04:24:43.302Z,6.50
2023-04-03T04:27:19.899Z,7.00
2023-04-03T04:30:01.879Z,5.50
2023-04-03T04:32:41.501Z,6.85
2023-04-03T04:35:25.650Z,6.47
2023-04-03T04:37:58.915Z,7.00
2023-04-03T04:40:44.940Z,7.70
2023-04-03T04:43:37.815Z,6.65
2023-04-03T04:46:14.192Z,6.90
2023-04-03T04:48:46.438Z,6.67
2023-04-03T04:51:15.634Z,5.75
2023-04-03T04:53:43.377Z,7.70
2023-04-03T04:56:15.399Z,6.63
2023-04-03T04:58:45.218Z,7.65
2023-04-03T05:01:12.427Z,5.65
2023-04-03T05:03:51.722Z,5.95
2023-04-03T05:06:25.249Z,7.65
2023-04-03T05:08:52.785Z,4.82
2023-04-03T05:11:21.154Z,4.68
2023-04-03T05:13:54.668Z,7.35
2023-04-03T05:16:26.336Z,4.45
2023-04-03T05:18:53.836Z,4.60
2023-04-03T05:21:24.143Z,5.38
2023-04-03T05:23:52.374Z,8.10
2023-04-03T05:26:21.634Z,7.80
2023-04-03T05:28:50.080Z,7.05
2023-04-03T05:31:22.777Z,8.93
2023-04-03T05:33:50.226Z,6.55
2023-04-03T05:36:18.713Z,7.18
2023-04-03T05:38:49.850Z,6.90
2023-04-03T05:41:17.109Z,12.73
2023-04-03T05:43:46.007Z,8.00
2023-04-03T05:46:18.527Z,6.85
2023-04-03T05:48:47.884Z,5.47
2023-04-03T05:51:29.529Z,6.95
2023-04-03T05:54:07.944Z,9.82
2023-04-03T05:56:36.846Z,6.22
2023-04-03T05:59:06.335Z,7.20
2023-04-03T06:01:34.416Z,7.32
2023-04-03T06:04:03.993Z,6.97
2023-04-03T06:06:51.253Z,6.03
2023-04-03T06:09:18.690Z,9.93
2023-04-03T06:11:45.493Z,6.72
2023-04-03T06:14:12.445Z,7.32
2023-04-03T06:16:40.248Z,6.07
2023-04-03T06:19:13.615Z,8.55
2023-04-03T06:21:45.830Z,6.15
2023-04-03T06:24:15.959Z,8.32
2023-04-03T06:26:44.990Z,8.30
2023-04-03T06:29:11.752Z,6.45
2023-04-03T06:31:41.446Z,6.70
2023-04-03T06:34:09.713Z,10.07
2023-04-03T06:36:42.905Z,5.43
2023-04-03T06:39:16.615Z,8.00
2023-04-03T06:41:43.806Z,8.20
2023-04-03T06:44:12.052Z,9.85
2023-04-03T06:46:39.536Z,6.15
2023-04-03T06:49:08.626Z,8.18
2023-04-03T06:51:37.718Z,7.78
2023-04-03T06:54:08.242Z,5.88
2023-04-03T06:56:37.162Z,5.97
2023-04-03T06:59:06.296Z,4.88
2023-04-03T07:01:33.030Z,5.43
2023-04-03T07:04:01.138Z,5.55
2023-04-03T07:06:31.106Z,6.82
2023-04-03T07:08:57.938Z,3.92
2023-04-03T07:11:28.239Z,5.43
2023-04-03T07:13:54.886Z,5.57
2023-04-03T07:16:23.715Z,6.05
2023-04-03T07:18:52.063Z,8.13
2023-04-03T07:21:18.651Z,6.50
2023-04-03T07:23:46.748Z,5.18
2023-04-03T07:26:13.718Z,7.78
2023-04-03T07:28:41.970Z,7.35
2023-04-03T07:31:18.746Z,6.93
2023-04-03T07:33:46.060Z,6.30
2023-04-03T07:36:20.100Z,5.32
2023-04-03T07:38:48.862Z,7.32
2023-04-03T07:41:18.422Z,4.00
2023-04-03T07:43:46.026Z,5.60
2023-04-03T07:46:15.154Z,5.30
2023-04-03T07:48:44.350Z,4.85
2023-04-03T07:51:11.474Z,2.55
2023-04-03T07:53:38.057Z,4.20
2023-04-03T07:56:04.801Z,4.35
2023-04-03T07:58:31.653Z,4.22
2023-04-03T08:00:58.683Z,3.72
2023-04-03T08:03:27.859Z,5.70
2023-04-03T08:05:57.051Z,7.57
2023-04-03T08:08:24.324Z,6.75
2023-04-03T08:10:57.496Z,7.00
2023-04-03T08:13:24.326Z,3.17
2023-04-03T08:15:51.640Z,6.50
2023-04-03T08:18:22.601Z,6.95
2023-04-03T08:20:51.504Z,8.30
2023-04-03T08:23:21.308Z,4.60
2023-04-03T08:25:49.105Z,3.80
2023-04-03T08:28:15.804Z,4.45
2023-04-03T08:30:43.572Z,3.58
2023-04-03T08:33:15.692Z,2.90
2023-04-03T08:35:47.240Z,4.45
2023-04-03T08:38:16.658Z,3.55
2023-04-03T08:40:45.822Z,6.45
2023-04-03T08:43:37.644Z,3.78
2023-04-03T08:46:07.179Z,3.95
2023-04-03T08:48:42.278Z,2.13
2023-04-03T08:51:17.576Z,2.63
2023-04-03T08:53:57.301Z,2.28
2023-04-03T08:56:29.824Z,3.03
2023-04-03T08:59:12.017Z,1.60
2023-04-03T09:01:42.154Z,4.57
2023-04-03T09:04:18.962Z,6.25
2023-04-03T09:06:51.261Z,1.23
2023-04-03T09:11:54.640Z,2.25
2023-04-03T09:14:33.036Z,1.73
2023-04-03T09:17:06.531Z,1.92
2023-04-03T09:19:35.153Z,2.40
2023-04-03T09:22:26.788Z,3.90
2023-04-03T09:24:58.790Z,7.00
2023-04-03T09:27:27.862Z,1.38
2023-04-03T09:29:59.409Z,2.92
2023-04-03T09:32:35.758Z,1.35
2023-04-03T09:35:23.447Z,1.33
2023-04-03T09:38:01.670Z,1.80
2023-04-03T09:40:33.058Z,2.17
2023-04-03T09:43:20.965Z,2.80
2023-04-03T09:45:49.740Z,1.88
2023-04-03T09:48:27.391Z,1.85
2023-04-03T09:51:00.237Z,1.25
2023-04-03T09:53:34.681Z,2.97
2023-04-03T09:56:04.253Z,1.40
2023-04-03T09:58:46.931Z,1.35
2023-04-03T10:01:36.693Z,2.03
2023-04-03T10:04:11.178Z,2.53
2023-04-03T10:06:47.808Z,2.55
2023-04-03T10:09:34.273Z,1.33
2023-04-03T10:12:05.870Z,2.67
2023-04-03T10:14:38.287Z,1.50
2023-04-03T10:17:31.167Z,1.85
2023-04-03T10:20:11.297Z,1.13
2023-04-03T10:22:41.896Z,2.45
2023-04-03T10:25:33.324Z,0.70
2023-04-03T10:28:12.488Z,1.73
2023-04-03T10:31:18.898Z,1.25
2023-04-03T10:34:19.305Z,3.70
2023-04-03T10:37:37.506Z,1.35
2023-04-03T10:40:32.097Z,1.52
2023-04-03T10:43:07.574Z,1.00
2023-04-03T10:46:11.720Z,1.80
2023-04-03T10:49:23.258Z,4.35
2023-04-03T10:51:57.798Z,3.08
2023-04-03T10:54:28.365Z,1.55
2023-04-03T10:57:10.860Z,4.05
2023-04-03T10:59:57.650Z,1.45
2023-04-03T11:02:36.120Z,1.33
2023-04-03T11:05:19.205Z,3.13
2023-04-03T11:07:53.725Z,1.70
2023-04-03T11:10:35.262Z,1.25
2023-04-03T11:13:14.088Z,2.35
2023-04-03T11:15:42.035Z,5.00
2023-04-03T11:18:18.099Z,1.73
2023-04-03T11:21:08.382Z,2.15
2023-04-03T11:23:49.079Z,3.45
2023-04-03T11:26:19.625Z,1.88
2023-04-03T11:28:47.157Z,2.00
2023-04-03T11:31:35.717Z,2.60
2023-04-03T11:34:35.325Z,1.60
2023-04-03T11:37:06.523Z,2.78
2023-04-03T11:39:39.064Z,2.47
2023-04-03T11:42:36.668Z,1.52
2023-04-03T11:45:22.939Z,2.22
2023-04-03T11:47:54.968Z,2.50
2023-04-03T11:50:51.228Z,2.50
2023-04-03T11:53:27.860Z,2.72
2023-04-03T11:56:01.067Z,2.33
2023-04-03T11:58:34.127Z,2.40
2023-04-03T12:01:03.102Z,2.20
2023-04-03T12:03:34.951Z,2.13
2023-04-03T12:06:17.656Z,2.33
2023-04-03T12:08:54.027Z,1.75
2023-04-03T12:11:31.474Z,2.05
2023-04-03T12:13:58.067Z,2.80
2023-04-03T12:16:31.607Z,2.25
2023-04-03T12:19:04.645Z,4.35
2023-04-03T12:21:37.341Z,1.80
2023-04-03T12:24:09.912Z,2.58
2023-04-03T12:26:59.990Z,2.30
2023-04-03T12:29:35.995Z,2.28
2023-04-03T12:32:19.151Z,3.45
2023-04-03T12:35:23.130Z,1.38
2023-04-03T12:38:17.562Z,4.25
2023-04-03T12:41:11.196Z,4.90
2023-04-03T12:43:43.726Z,2.55
2023-04-03T12:46:12.813Z,2.25
2023-04-03T12:48:54.464Z,2.53
2023-04-03T12:51:29.638Z,1.53
2023-04-03T12:54:04.222Z,1.95
2023-04-03T12:56:38.313Z,2.45
2023-04-03T12:59:22.018Z,1.30
2023-04-03T13:01:59.935Z,2.60
2023-04-03T13:04:36.985Z,3.13
2023-04-03T13:07:03.648Z,3.65
2023-04-03T13:09:35.050Z,2.65
2023-04-03T13:12:12.385Z,2.83
2023-04-03T13:14:39.288Z,4.28
2023-04-03T13:17:15.718Z,2.22
2023-04-03T13:19:46.760Z,1.65
2023-04-03T13:22:36.713Z,2.33
2023-04-03T13:25:07.503Z,1.17
2023-04-03T13:27:34.362Z,4.13
2023-04-03T13:30:02.940Z,1.27
2023-04-03T13:32:33.067Z,3.17
2023-04-03T13:35:08.125Z,1.13
2023-04-03T13:37:57.167Z,1.23
2023-04-03T13:40:38.136Z,1.27
2023-04-03T13:43:23.432Z,3.10
2023-04-03T13:46:10.992Z,2.17
2023-04-03T13:48:52.613Z,2.83
2023-04-03T13:51:44.352Z,1.30
2023-04-03T13:54:43.119Z,2.10
2023-04-03T13:57:18.626Z,0.80
2023-04-03T13:59:48.453Z,1.30
2023-04-03T14:02:19.646Z,1.40
2023-04-03T14:04:51.582Z,0.98
2023-04-03T14:07:24.564Z,1.75
2023-04-03T14:09:51.696Z,1.25
2023-04-03T14:12:39.389Z,0.80
2023-04-03T14:15:16.751Z,0.80
2023-04-03T14:17:43.488Z,1.02
2023-04-03T14:20:18.066Z,1.77
2023-04-03T14:22:45.074Z,0.95
2023-04-03T14:25:11.889Z,1.25
2023-04-03T14:27:42.359Z,1.33
2023-04-03T14:30:33.749Z,2.15
2023-04-03T14:33:02.637Z,1.30
2023-04-03T14:35:39.647Z,1.08
2023-04-03T14:38:27.038Z,1.17
2023-04-03T14:41:26.830Z,1.67
2023-04-03T14:44:03.937Z,1.88
2023-04-03T14:46:56.166Z,0.98
2023-04-03T14:49:51.033Z,1.02
2023-04-03T14:52:41.258Z,4.85
2023-04-03T14:55:18.064Z,2.15
2023-04-03T14:57:52.084Z,1.27
2023-04-03T15:00:28.932Z,1.95
2023-04-03T15:03:23.100Z,0.98
2023-04-03T15:05:55.184Z,1.55
2023-04-03T15:08:28.016Z,0.90
2023-04-03T15:11:11.689Z,0.95
2023-04-03T15:13:49.583Z,2.30
2023-04-03T15:16:20.944Z,1.50
2023-04-03T15:19:06.475Z,1.33
2023-04-03T15:21:35.654Z,2.03
2023-04-03T15:24:07.826Z,1.42
2023-04-03T15:26:39.440Z,1.83
2023-04-03T15:29:17.003Z,2.70
2023-04-03T15:31:48.581Z,3.25
2023-04-03T15:34:24.773Z,1.85
2023-04-03T15:36:53.522Z,1.25
2023-04-03T15:39:24.047Z,0.95
2023-04-03T15:41:52.761Z,1.67
2023-04-03T15:44:25.971Z,1.85
2023-04-03T15:46:55.625Z,0.90
2023-04-03T15:49:37.991Z,1.23
2023-04-03T15:52:11.243Z,7.15
2023-04-03T15:54:39.836Z,9.65
2023-04-03T15:57:09.536Z,2.58
2023-04-03T15:59:43.024Z,2.58
2023-04-03T16:02:20.537Z,1.92
2023-04-03T16:04:54.510Z,1.90
2023-04-03T16:07:27.691Z,1.35
2023-04-03T16:10:03.160Z,1.08
2023-04-03T16:12:36.025Z,1.15
2023-04-03T16:15:14.682Z,1.17
2023-04-03T16:17:44.744Z,1.27
2023-04-03T16:20:21.447Z,1.10
2023-04-03T16:22:51.935Z,1.08
2023-04-03T16:25:26.237Z,2.53
2023-04-03T16:27:54.987Z,1.33
2023-04-03T16:30:27.569Z,1.83
2023-04-03T16:32:56.748Z,2.03
2023-04-03T16:35:25.854Z,1.75
2023-04-03T16:37:52.457Z,2.22
2023-04-03T16:40:22.045Z,1.83
2023-04-03T16:42:53.398Z,1.42
2023-04-03T16:45:24.294Z,1.47
2023-04-03T16:47:50.902Z,3.13
2023-04-03T16:50:18.339Z,0.95
2023-04-03T16:52:51.027Z,4.05
2023-04-03T16:55:17.963Z,1.48
2023-04-03T16:57:47.118Z,0.90
2023-04-03T17:00:16.351Z,1.63
2023-04-03T17:02:43.084Z,1.35
2023-04-03T17:05:12.449Z,1.15
2023-04-03T17:07:43.765Z,1.23
2023-04-03T17:10:14.713Z,3.33
2023-04-03T17:12:41.672Z,2.45
2023-04-03T17:15:17.257Z,3.15
2023-04-03T17:18:03.441Z,1.10
2023-04-03T17:20:41.177Z,1.08
2023-04-03T17:23:21.548Z,1.15
2023-04-03T17:26:01.927Z,0.88
2023-04-03T17:28:39.021Z,2.35
2023-04-03T17:31:19.617Z,2.60
2023-04-03T17:33:53.044Z,5.38
2023-04-03T17:36:23.974Z,1.90
2023-04-03T17:39:07.062Z,2.38
2023-04-03T17:41:36.489Z,1.20
2023-04-03T17:44:08.068Z,1.35
2023-04-03T17:46:54.597Z,3.20
2023-04-03T17:49:29.397Z,1.92
2023-04-03T17:52:07.586Z,2.78
2023-04-03T17:54:47.266Z,1.75
2023-04-03T17:57:25.859Z,1.45
2023-04-03T18:00:04.625Z,4.18
2023-04-03T18:02:48.660Z,1.88
2023-04-03T18:05:32.153Z,1.02
2023-04-03T18:08:06.717Z,2.00
2023-04-03T18:10:39.782Z,1.45
2023-04-03T18:13:12.165Z,1.40
2023-04-03T18:21:27.952Z,1.52
2023-04-03T18:24:02.121Z,1.75
2023-04-03T18:26:38.628Z,2.33
2023-04-03T18:29:32.128Z,2.60
2023-04-03T18:32:37.462Z,3.08
2023-04-03T18:35:13.269Z,3.50
2023-04-03T18:37:55.576Z,1.38
2023-04-03T18:40:25.750Z,2.78
2023-04-03T18:42:58.715Z,2.05
2023-04-03T18:49:51.654Z,2.35
2023-04-03T18:52:49.862Z,1.60
2023-04-03T18:55:46.489Z,2.22
2023-04-03T18:58:23.245Z,2.47
2023-04-03T19:05:08.279Z,4.88
2023-04-03T19:07:35.116Z,3.08
2023-04-03T19:10:08.533Z,1.65
2023-04-03T19:12:35.378Z,3.10
2023-04-03T19:15:02.064Z,2.38
2023-04-03T19:17:28.850Z,2.03
2023-04-03T19:20:02.155Z,1.60
2023-04-03T19:22:37.300Z,3.83
2023-04-03T19:25:09.099Z,1.65
2023-04-03T19:27:36.770Z,1.85
2023-04-03T19:30:07.028Z,1.80
2023-04-03T19:32:38.647Z,4.75
2023-04-03T19:35:10.198Z,2.60
2023-04-03T19:37:36.842Z,1.23
2023-04-03T19:40:13.828Z,3.22
2023-04-03T19:42:47.357Z,1.15
2023-04-03T19:45:23.193Z,1.75
2023-04-03T19:47:50.001Z,2.40
2023-04-03T19:50:19.495Z,2.22
2023-04-03T19:52:46.321Z,2.72
2023-04-03T19:55:17.273Z,2.70
2023-04-03T19:57:46.742Z,2.05
2023-04-03T20:00:16.393Z,2.90
2023-04-03T20:02:43.106Z,1.77
2023-04-03T20:05:11.269Z,3.90
2023-04-03T20:07:37.871Z,2.60
2023-04-03T20:10:07.714Z,3.28
2023-04-03T20:12:38.028Z,1.30
2023-04-03T20:15:10.008Z,3.42
2023-04-03T20:17:39.869Z,2.30
2023-04-03T20:20:09.477Z,1.92
2023-04-03T20:22:44.579Z,3.30
2023-04-03T20:25:17.484Z,1.45
2023-04-03T20:27:51.548Z,1.95
2023-04-03T20:30:21.433Z,1.23
2023-04-03T20:32:48.343Z,2.55
2023-04-03T20:35:21.945Z,2.78
2023-04-03T20:37:51.177Z,1.95
2023-04-03T20:40:17.972Z,2.35
2023-04-03T20:42:46.776Z,1.92
2023-04-03T20:45:22.143Z,2.58
2023-04-03T20:47:50.662Z,1.70
2023-04-03T20:50:18.637Z,2.58
2023-04-03T20:52:47.387Z,3.42
2023-04-03T20:55:16.758Z,2.10
2023-04-03T20:57:54.487Z,2.20
2023-04-03T21:00:25.109Z,1.85
2023-04-03T21:02:51.763Z,1.98
2023-04-03T21:05:18.549Z,1.48
2023-04-03T21:08:25.130Z,2.67
2023-04-03T21:11:31.525Z,2.45
2023-04-03T21:14:37.213Z,2.40
2023-04-03T21:17:03.775Z,3.47
2023-04-03T21:19:30.713Z,3.30
2023-04-03T21:22:04.504Z,2.28
2023-04-03T21:24:35.064Z,3.78
2023-04-03T21:27:04.881Z,1.65
2023-04-03T21:29:31.608Z,1.48
2023-04-03T21:31:59.559Z,2.15
2023-04-03T21:34:27.944Z,1.63
2023-04-03T21:37:08.542Z,0.98
2023-04-03T21:39:48.712Z,2.78
2023-04-03T21:42:15.238Z,1.67
2023-04-03T21:44:43.742Z,2.47
2023-04-03T21:47:14.679Z,1.52
2023-04-03T21:49:44.009Z,1.48
2023-04-03T21:52:13.613Z,2.83
2023-04-03T21:54:44.352Z,1.77
2023-04-03T21:57:14.306Z,4.70
2023-04-03T21:59:47.811Z,2.75
2023-04-03T22:02:17.103Z,1.67
2023-04-03T22:04:43.700Z,3.10
2023-04-03T22:07:11.564Z,1.90
2023-04-03T22:09:38.118Z,3.17
2023-04-03T22:12:12.838Z,1.83
2023-04-03T22:14:44.582Z,1.38
2023-04-03T22:17:18.385Z,3.55
2023-04-03T22:19:57.365Z,2.10
2023-04-03T22:22:27.010Z,1.42
2023-04-03T22:24:55.735Z,1.73
2023-04-03T22:27:24.762Z,2.55
2023-04-03T22:29:51.428Z,2.28
2023-04-03T22:32:23.685Z,2.47
2023-04-03T22:34:53.494Z,2.25
2023-04-03T22:37:24.785Z,2.47
2023-04-03T22:39:51.754Z,2.47
2023-04-03T22:42:21.186Z,4.18
2023-04-03T22:44:51.203Z,3.13
2023-04-03T22:47:20.246Z,3.33
2023-04-03T22:49:46.819Z,3.15
2023-04-03T22:52:15.926Z,3.13
2023-04-03T22:54:44.951Z,2.70
2023-04-03T22:57:16.033Z,3.55
2023-04-03T22:59:42.604Z,3.38
2023-04-03T23:02:09.152Z,2.53
2023-04-03T23:04:38.812Z,1.65
2023-04-03T23:07:07.717Z,3.15
2023-04-03T23:09:38.302Z,1.88
2023-04-03T23:12:10.656Z,3.88
2023-04-03T23:14:43.688Z,1.52
2023-04-03T23:17:13.164Z,1.63
2023-04-03T23:19:41.713Z,3.15
2023-04-03T23:22:18.065Z,2.83
2023-04-03T23:24:47.323Z,3.28
2023-04-03T23:27:16.184Z,1.90
2023-04-03T23:29:49.622Z,2.33
2023-04-03T23:32:16.483Z,2.08
2023-04-03T23:34:47.435Z,2.95
2023-04-03T23:37:16.947Z,2.28
2023-04-03T23:39:43.565Z,1.30
2023-04-03T23:42:11.895Z,1.65
2023-04-03T23:44:40.795Z,2.05
2023-04-03T23:47:07.363Z,1.60
2023-04-03T23:49:38.338Z,1.33
2023-04-03T23:52:05.035Z,1.75
2023-04-03T23:54:34.620Z,5.15
2023-04-03T23:57:03.621Z,2.00
2023-04-03T23:59:30.858Z,2.22
